Time;durP1;ratioP1;P1;durP2;ratioP2;P2;SDS_P1;SDS_P2;PMS_P1;PMS_P2;Temp;Humidity;BMP_temperature;BMP_pressure;BME280_temperature;BME280_humidity;BME280_pressure;Samples;Min_cycle;Max_cycle;Signal;HPM_P1;HPM_P2
2021/03/27 00:00:30;;;;;;;;;;;;;;;1.81;100.00;98089.34;5115922;28;19923;-82
2021/03/27 00:03:00;;;;;;;;;;;;;;;1.85;100.00;98087.38;5082384;28;19924;-82
2021/03/27 00:05:47;;;;;;;;;;;;;;;1.88;100.00;98087.78;5101432;28;19923;-82
2021/03/27 00:08:13;;;;;;;;;;;;;;;1.94;100.00;98089.75;5116264;28;19934;-82
2021/03/27 00:10:49;;;;;;;;;;;;;;;1.95;100.00;98085.06;5099375;28;19971;-83
2021/03/27 00:13:21;;;;;;;;;;;;;;;1.93;100.00;98077.19;5078412;28;20665;-83
2021/03/27 00:15:53;;;;;;;;;;;;;;;1.92;100.00;98092.13;5098399;28;20290;-83
2021/03/27 00:18:37;;;;;;;;;;;;;;;1.95;100.00;98091.34;5101190;27;19924;-83
2021/03/27 00:21:33;;;;;;;;;;;;;;;1.92;100.00;98097.66;5099175;28;19935;-83
2021/03/27 00:24:04;;;;;;;;;;;;;;;1.85;100.00;98100.34;5078223;28;19930;-83
2021/03/27 00:26:57;;;;;;;;;;;;;;;1.85;100.00;98114.94;5092727;28;19923;-82
2021/03/27 00:29:26;;;;;;;;;;;;;;;1.94;100.00;98113.78;5105140;27;19993;-83
2021/03/27 00:31:57;;;;;;;;;;;;;;;1.98;100.00;98107.09;5104864;27;19966;-83
2021/03/27 00:34:27;;;;;;;;;;;;;;;2.04;100.00;98108.31;5137598;27;19973;-83
2021/03/27 00:36:56;;;;;;;;;;;;;;;2.09;100.00;98112.63;5134460;27;19935;-82
2021/03/27 00:39:31;;;;;;;;;;;;;;;2.07;100.00;98115.78;5099170;28;20290;-82
2021/03/27 00:41:59;;;;;;;;;;;;;;;2.04;100.00;98121.28;5092935;28;20511;-82
2021/03/27 00:44:27;;;;;;;;;;;;;;;2.01;100.00;98125.59;5118902;27;19927;-82
2021/03/27 00:46:55;;;;;;;;;;;;;;;2.06;100.00;98129.94;5096257;28;19957;-82
2021/03/27 00:49:25;;;;;;;;;;;;;;;2.10;100.00;98125.22;5086811;28;19928;-82
2021/03/27 00:51:54;;;;;;;;;;;;;;;2.11;100.00;98149.63;5098405;28;19966;-82
2021/03/27 00:54:34;;;;;;;;;;;;;;;2.12;100.00;98133.91;5098225;28;19932;-83
2021/03/27 00:57:04;;;;;;;;;;;;;;;2.10;100.00;98147.28;5098518;28;20576;-83
2021/03/27 00:59:37;;;;;;;;;;;;;;;2.11;100.00;98151.59;5113317;27;19924;-83
2021/03/27 01:02:18;;;;;;;;;;;;;;;2.05;100.00;98155.91;5066519;28;20303;-82
2021/03/27 01:05:06;;;;;;;;;;;;;;;1.97;100.00;98166.13;5091147;28;19927;-83
2021/03/27 01:07:53;;;;;;;;;;;;;;;1.93;100.00;98168.09;5099871;28;19931;-82
2021/03/27 01:11:00;;;;;;;;;;;;;;;1.91;100.00;98166.91;5039702;28;20028;-82
2021/03/27 01:13:44;;;;;;;;;;;;;;;1.95;100.00;98168.50;5001227;28;19925;-82
2021/03/27 01:16:14;;;;;;;;;;;;;;;1.98;100.00;98175.97;5038578;28;19924;-82
2021/03/27 01:18:43;;;;;;;;;;;;;;;1.96;100.00;98183.03;5041846;28;20276;-82
2021/03/27 01:21:13;;;;;;;;;;;;;;;2.00;100.00;98181.09;5062301;28;20021;-82
2021/03/27 01:23:40;;;;;;;;;;;;;;;2.01;100.00;98188.19;5067506;28;19932;-82
2021/03/27 01:26:22;;;;;;;;;;;;;;;2.03;100.00;98196.84;5019828;28;19924;-82
2021/03/27 01:28:52;;;;;;;;;;;;;;;2.03;100.00;98205.13;5039128;28;19925;-82
2021/03/27 01:31:29;;;;;;;;;;;;;;;1.98;100.00;98209.03;5036551;28;19925;-82
2021/03/27 01:33:56;;;;;;;;;;;;;;;1.88;100.00;98217.25;5053304;28;19925;-82
2021/03/27 01:36:26;;;;;;;;;;;;;;;1.80;100.00;98216.44;5025519;28;19925;-82
2021/03/27 01:38:58;;;;;;;;;;;;;;;1.76;100.00;98216.41;5044536;28;20023;-83
2021/03/27 01:41:29;;;;;;;;;;;;;;;1.77;100.00;98217.97;5069825;28;19931;-82
2021/03/27 01:44:14;;;;;;;;;;;;;;;1.73;100.00;98239.22;5100266;27;20335;-82
2021/03/27 01:47:00;;;;;;;;;;;;;;;1.70;100.00;98237.22;5080763;28;19930;-82
2021/03/27 01:49:35;;;;;;;;;;;;;;;1.79;100.00;98237.69;5070381;27;19964;-82
2021/03/27 01:52:08;;;;;;;;;;;;;;;1.80;100.00;98242.00;5090703;28;19927;-82
2021/03/27 01:54:54;;;;;;;;;;;;;;;1.84;100.00;98250.28;5100248;27;19942;-82
2021/03/27 01:57:27;;;;;;;;;;;;;;;1.88;100.00;98250.31;5100645;27;19965;-83
2021/03/27 02:00:01;;;;;;;;;;;;;;;1.96;100.00;98218.84;5102767;27;19927;-82
2021/03/27 02:03:02;;;;;;;;;;;;;;;2.04;100.00;98248.03;5104067;28;19924;-82
2021/03/27 02:05:35;;;;;;;;;;;;;;;2.04;100.00;98248.03;5088861;27;19963;-82
2021/03/27 02:08:11;;;;;;;;;;;;;;;2.11;100.00;98248.03;5102956;27;19927;-82
2021/03/27 02:10:41;;;;;;;;;;;;;;;2.09;100.00;98242.16;5108496;28;20267;-82
2021/03/27 02:13:13;;;;;;;;;;;;;;;2.12;100.00;98244.91;5096925;28;20018;-82
2021/03/27 02:15:43;;;;;;;;;;;;;;;2.13;100.00;98262.22;5096710;28;19924;-83
2021/03/27 02:18:13;;;;;;;;;;;;;;;2.01;100.00;98260.63;5093902;27;19955;-82
2021/03/27 02:20:52;;;;;;;;;;;;;;;1.80;100.00;98261.28;5097075;28;19962;-82
2021/03/27 02:23:51;;;;;;;;;;;;;;;1.80;100.00;98274.28;5110997;27;19989;-82
2021/03/27 02:26:44;;;;;;;;;;;;;;;1.86;100.00;98276.25;5088429;28;19935;-82
2021/03/27 02:29:29;;;;;;;;;;;;;;;1.98;100.00;98257.84;5118970;27;19966;-82
2021/03/27 02:32:08;;;;;;;;;;;;;;;2.03;100.00;98258.25;5079730;28;19972;-82
2021/03/27 02:34:39;;;;;;;;;;;;;;;2.07;100.00;98263.78;5114823;28;19951;-82
2021/03/27 02:37:16;;;;;;;;;;;;;;;2.10;100.00;98271.28;5093180;28;19971;-82
2021/03/27 02:39:47;;;;;;;;;;;;;;;2.11;100.00;98270.88;5125080;27;20423;-82
2021/03/27 02:42:33;;;;;;;;;;;;;;;2.05;100.00;98277.16;5098903;28;19982;-82
2021/03/27 02:45:05;;;;;;;;;;;;;;;1.95;100.00;98283.41;5114378;28;20397;-82
2021/03/27 02:47:38;;;;;;;;;;;;;;;1.73;100.00;98299.81;5106006;28;19927;-82
2021/03/27 02:50:05;;;;;;;;;;;;;;;1.49;100.00;98299.63;5103831;28;19930;-81
2021/03/27 02:52:38;;;;;;;;;;;;;;;1.31;100.00;98312.47;5097159;28;19937;-81
2021/03/27 02:55:24;;;;;;;;;;;;;;;1.23;100.00;98319.88;5108354;28;19924;-82
2021/03/27 02:57:54;;;;;;;;;;;;;;;1.19;100.00;98326.50;5069169;28;19924;-81
2021/03/27 03:00:35;;;;;;;;;;;;;;;1.24;100.00;98324.19;5093159;28;19924;-82
2021/03/27 03:03:05;;;;;;;;;;;;;;;1.32;100.00;98325.84;5080080;28;19924;-81
2021/03/27 03:05:39;;;;;;;;;;;;;;;1.39;100.00;98336.91;5082596;28;20038;-81
2021/03/27 03:08:23;;;;;;;;;;;;;;;1.44;100.00;98336.56;5096247;28;19923;-81
2021/03/27 03:10:49;;;;;;;;;;;;;;;1.53;100.00;98339.00;5079790;28;20000;-81
2021/03/27 03:13:29;;;;;;;;;;;;;;;1.56;100.00;98333.50;5095959;28;19933;-81
2021/03/27 03:16:15;;;;;;;;;;;;;;;1.67;100.00;98339.09;5079368;28;19931;-81
2021/03/27 03:18:56;;;;;;;;;;;;;;;1.74;100.00;98353.69;5096764;28;19924;-81
2021/03/27 03:21:32;;;;;;;;;;;;;;;1.77;100.00;98357.69;5121307;28;19950;-80
2021/03/27 03:24:17;;;;;;;;;;;;;;;1.72;100.00;98352.50;5099516;28;19970;-80
2021/03/27 03:26:59;;;;;;;;;;;;;;;1.70;100.00;98361.16;5114384;28;19928;-80
2021/03/27 03:29:28;;;;;;;;;;;;;;;1.69;100.00;98359.59;5099419;28;19923;-80
2021/03/27 03:32:03;;;;;;;;;;;;;;;1.67;100.00;98355.63;5107018;28;19924;-80
2021/03/27 03:34:30;;;;;;;;;;;;;;;1.61;100.00;98357.13;5114192;28;19954;-81
2021/03/27 03:37:03;;;;;;;;;;;;;;;1.59;100.00;98354.78;5096072;28;19924;-80
2021/03/27 03:39:32;;;;;;;;;;;;;;;1.63;100.00;98371.31;5081071;28;19930;-80
2021/03/27 03:42:07;;;;;;;;;;;;;;;1.64;100.00;98375.66;5125798;28;20026;-80
2021/03/27 03:44:41;;;;;;;;;;;;;;;1.63;100.00;98388.66;5097845;28;19927;-80
2021/03/27 03:47:10;;;;;;;;;;;;;;;1.65;100.00;98380.78;5107750;28;20468;-80
2021/03/27 03:49:58;;;;;;;;;;;;;;;1.60;100.00;98383.91;5097336;27;20010;-80
2021/03/27 03:52:33;;;;;;;;;;;;;;;1.65;100.00;98391.03;5138929;27;19924;-80
2021/03/27 03:55:04;;;;;;;;;;;;;;;1.68;100.00;98402.03;5118307;27;19929;-80
2021/03/27 03:57:31;;;;;;;;;;;;;;;1.64;100.00;98411.44;5120038;27;19973;-81
2021/03/27 04:00:18;;;;;;;;;;;;;;;1.58;100.00;98408.28;5120204;27;19930;-80
2021/03/27 04:02:54;;;;;;;;;;;;;;;1.55;100.00;98403.53;5119609;27;19930;-80
2021/03/27 04:05:23;;;;;;;;;;;;;;;1.52;100.00;98392.47;5119724;27;20366;-80
2021/03/27 04:07:55;;;;;;;;;;;;;;;1.59;100.00;98425.59;5138496;27;19923;-80
2021/03/27 04:10:24;;;;;;;;;;;;;;;1.61;100.00;98426.78;5105471;27;19946;-80
2021/03/27 04:12:58;;;;;;;;;;;;;;;1.67;100.00;98425.25;5110991;28;19924;-80
2021/03/27 04:15:25;;;;;;;;;;;;;;;1.71;100.00;98428.81;5096020;28;19928;-79
2021/03/27 04:17:57;;;;;;;;;;;;;;;1.63;100.00;98431.91;5099342;28;20333;-80
2021/03/27 04:20:44;;;;;;;;;;;;;;;1.62;100.00;98420.09;5113721;27;19955;-80
2021/03/27 04:23:33;;;;;;;;;;;;;;;1.64;100.00;98433.47;5089912;28;19959;-80
2021/03/27 04:26:08;;;;;;;;;;;;;;;1.63;100.00;98449.22;5102451;27;20018;-79
2021/03/27 04:28:54;;;;;;;;;;;;;;;1.68;100.00;98443.34;5106594;28;19923;-79
2021/03/27 04:31:29;;;;;;;;;;;;;;;1.71;100.00;98467.38;5117550;28;19924;-79
2021/03/27 04:33:56;;;;;;;;;;;;;;;1.64;100.00;98477.53;5131379;27;19992;-79
2021/03/27 04:36:30;;;;;;;;;;;;;;;1.53;100.00;98488.44;5099150;28;19946;-79
2021/03/27 04:39:00;;;;;;;;;;;;;;;1.53;100.00;98480.19;5093489;28;19924;-79
2021/03/27 04:41:35;;;;;;;;;;;;;;;1.60;100.00;98479.47;5102717;28;19931;-79
2021/03/27 04:44:08;;;;;;;;;;;;;;;1.65;100.00;98479.91;5098586;28;19931;-79
2021/03/27 04:46:43;;;;;;;;;;;;;;;1.67;100.00;98482.28;5124213;27;19934;-79
2021/03/27 04:49:19;;;;;;;;;;;;;;;1.62;100.00;98490.91;5137409;27;19924;-79
2021/03/27 04:51:49;;;;;;;;;;;;;;;1.60;100.00;98505.06;5098922;28;19923;-78
2021/03/27 04:54:16;;;;;;;;;;;;;;;1.55;100.00;98502.63;5117031;27;20014;-78
2021/03/27 04:57:02;;;;;;;;;;;;;;;1.56;100.00;98520.72;5122709;27;19924;-79
2021/03/27 04:59:40;;;;;;;;;;;;;;;1.59;100.00;98519.97;5125698;27;19924;-78
2021/03/27 05:02:12;;;;;;;;;;;;;;;1.57;100.00;98522.34;5121409;27;19923;-79
2021/03/27 05:04:51;;;;;;;;;;;;;;;1.55;100.00;98523.88;5107087;28;19963;-78
2021/03/27 05:07:24;;;;;;;;;;;;;;;1.53;100.00;98532.50;5101519;27;19923;-78
2021/03/27 05:10:03;;;;;;;;;;;;;;;1.55;100.00;98545.91;5124196;27;20290;-78
2021/03/27 05:12:50;;;;;;;;;;;;;;;1.59;100.00;98538.47;5097944;28;19924;-78
2021/03/27 05:15:17;;;;;;;;;;;;;;;1.63;100.00;98547.56;5100085;27;19923;-78
2021/03/27 05:17:43;;;;;;;;;;;;;;;1.65;100.00;98562.53;5118554;27;19985;-78
2021/03/27 05:20:22;;;;;;;;;;;;;;;1.70;100.00;98559.44;5136707;27;19976;-79
2021/03/27 05:22:52;;;;;;;;;;;;;;;1.75;100.00;98564.63;5118694;27;19923;-79
2021/03/27 05:25:25;;;;;;;;;;;;;;;1.80;100.00;98572.53;5118380;27;20266;-79
2021/03/27 05:28:10;;;;;;;;;;;;;;;1.83;100.00;98568.25;5098044;28;19923;-78
2021/03/27 05:30:46;;;;;;;;;;;;;;;1.89;100.00;98578.53;5097914;28;20435;-79
2021/03/27 05:33:31;;;;;;;;;;;;;;;1.92;100.00;98577.78;5107113;27;19961;-79
2021/03/27 05:35:58;;;;;;;;;;;;;;;1.94;100.00;98582.13;5118477;27;19924;-79
2021/03/27 05:38:31;;;;;;;;;;;;;;;1.97;100.00;98589.63;5107987;28;19928;-79
2021/03/27 05:41:16;;;;;;;;;;;;;;;1.96;100.00;98588.03;5108636;28;20072;-79
2021/03/27 05:44:01;;;;;;;;;;;;;;;1.91;100.00;98591.16;5127929;27;20285;-79
2021/03/27 05:46:47;;;;;;;;;;;;;;;1.91;100.00;98591.16;5097619;28;19949;-79
2021/03/27 05:49:52;;;;;;;;;;;;;;;1.98;100.00;98591.22;5111843;27;20021;-79
2021/03/27 05:52:37;;;;;;;;;;;;;;;1.99;100.00;98603.81;5025246;28;19925;-79
2021/03/27 05:55:19;;;;;;;;;;;;;;;2.03;100.00;98601.91;4987427;28;19925;-79
2021/03/27 05:58:05;;;;;;;;;;;;;;;2.09;100.00;98608.66;5033099;28;19925;-79
2021/03/27 06:00:40;;;;;;;;;;;;;;;2.10;100.00;98610.22;5016607;28;19925;-79
2021/03/27 06:03:25;;;;;;;;;;;;;;;2.12;100.00;98624.44;5016470;28;20716;-79
2021/03/27 06:06:10;;;;;;;;;;;;;;;2.17;100.00;98629.59;5020875;28;19972;-79
2021/03/27 06:08:52;;;;;;;;;;;;;;;2.25;100.00;98628.50;5016144;28;19929;-79
2021/03/27 06:11:25;;;;;;;;;;;;;;;2.29;100.00;98634.84;5032455;28;19932;-79
2021/03/27 06:14:12;;;;;;;;;;;;;;;2.30;100.00;98647.47;5008397;28;19925;-79
2021/03/27 06:16:57;;;;;;;;;;;;;;;2.34;100.00;98649.06;5009130;28;19925;-79
2021/03/27 06:19:42;;;;;;;;;;;;;;;2.35;100.00;98660.91;5003339;28;19933;-79
2021/03/27 06:22:16;;;;;;;;;;;;;;;2.42;100.00;98659.00;5037908;28;19935;-79
2021/03/27 06:24:46;;;;;;;;;;;;;;;2.52;100.00;98660.25;5122753;27;20021;-79
2021/03/27 06:27:24;;;;;;;;;;;;;;;2.53;100.00;98667.38;5134910;27;19927;-79
2021/03/27 06:30:06;;;;;;;;;;;;;;;2.50;100.00;98676.41;5096052;28;19924;-79
2021/03/27 06:32:51;;;;;;;;;;;;;;;2.53;100.00;98678.41;5094795;27;19924;-79
2021/03/27 06:35:39;;;;;;;;;;;;;;;2.55;100.00;98670.53;5104661;28;19931;-79
2021/03/27 06:38:12;;;;;;;;;;;;;;;2.54;100.00;98677.22;5122295;27;20453;-79
2021/03/27 06:40:58;;;;;;;;;;;;;;;2.59;100.00;98679.66;5102703;28;19924;-79
2021/03/27 06:43:42;;;;;;;;;;;;;;;2.57;100.00;98682.78;5096320;28;20409;-79
2021/03/27 06:46:17;;;;;;;;;;;;;;;2.62;100.00;98698.19;5096022;28;20122;-79
2021/03/27 06:48:53;;;;;;;;;;;;;;;2.62;100.00;98687.94;5091132;27;20011;-81
2021/03/27 06:51:38;;;;;;;;;;;;;;;2.66;100.00;98699.03;5098626;28;20377;-80
2021/03/27 06:54:17;;;;;;;;;;;;;;;2.66;100.00;98705.34;5088804;28;20268;-80
2021/03/27 06:57:04;;;;;;;;;;;;;;;2.69;100.00;98699.06;5102638;27;19932;-80
2021/03/27 06:59:30;;;;;;;;;;;;;;;2.69;100.00;98709.28;5098678;28;19931;-79
2021/03/27 07:02:17;;;;;;;;;;;;;;;2.73;100.00;98705.41;5114735;28;19946;-79
2021/03/27 07:04:49;;;;;;;;;;;;;;;2.77;100.00;98713.72;5102249;28;20446;-80
2021/03/27 07:07:37;;;;;;;;;;;;;;;2.83;100.00;98714.94;5097994;28;19924;-80
2021/03/27 07:10:22;;;;;;;;;;;;;;;2.82;100.00;98713.34;5082902;28;19931;-80
2021/03/27 07:13:16;;;;;;;;;;;;;;;2.80;100.00;98727.53;5114315;28;19930;-80
2021/03/27 07:16:04;;;;;;;;;;;;;;;2.81;100.00;98733.84;5108950;28;20318;-81
2021/03/27 07:18:33;;;;;;;;;;;;;;;2.82;100.00;98740.94;5129915;28;20377;-80
2021/03/27 07:21:19;;;;;;;;;;;;;;;2.85;100.00;98745.69;5135099;28;19924;-80
2021/03/27 07:23:55;;;;;;;;;;;;;;;2.87;100.00;98751.63;5131383;28;19931;-81
2021/03/27 07:26:48;;;;;;;;;;;;;;;2.90;100.00;98748.91;5092976;27;20026;-81
2021/03/27 07:29:41;;;;;;;;;;;;;;;2.94;100.00;98760.00;5105062;27;19935;-81
2021/03/27 07:32:37;;;;;;;;;;;;;;;2.96;100.00;98752.91;5101762;27;19973;-82
2021/03/27 07:35:14;;;;;;;;;;;;;;;2.91;100.00;98755.22;5067178;28;19925;-81
2021/03/27 07:37:40;;;;;;;;;;;;;;;2.94;100.00;98768.28;5056154;28;20415;-82
2021/03/27 07:40:07;;;;;;;;;;;;;;;2.96;100.00;98769.47;5070301;28;19924;-82
2021/03/27 07:42:41;;;;;;;;;;;;;;;2.96;100.00;98785.22;5038250;28;19928;-82
2021/03/27 07:45:28;;;;;;;;;;;;;;;2.97;100.00;98787.59;5038727;28;19936;-82
2021/03/27 07:48:00;;;;;;;;;;;;;;;2.99;100.00;98778.94;5052992;28;19939;-82
2021/03/27 07:50:41;;;;;;;;;;;;;;;2.99;100.00;98807.34;5021029;28;19925;-82
2021/03/27 07:53:32;;;;;;;;;;;;;;;3.02;100.00;98800.28;5018737;28;19925;-78
2021/03/27 07:56:17;;;;;;;;;;;;;;;3.07;100.00;98819.25;5008184;28;20265;-81
2021/03/27 07:58:56;;;;;;;;;;;;;;;3.11;100.00;98820.06;5054403;28;19929;-81
2021/03/27 08:01:23;;;;;;;;;;;;;;;3.17;100.00;98837.88;5041115;28;19932;-82
2021/03/27 08:04:08;;;;;;;;;;;;;;;3.24;100.00;98835.19;5038553;28;20012;-82
2021/03/27 08:06:50;;;;;;;;;;;;;;;3.29;100.00;98834.84;5054698;28;20027;-82
2021/03/27 08:09:21;;;;;;;;;;;;;;;3.33;100.00;98843.97;5031052;28;19955;-82
2021/03/27 08:11:48;;;;;;;;;;;;;;;3.38;100.00;98846.34;5070997;28;19924;-82
2021/03/27 08:14:19;;;;;;;;;;;;;;;3.41;100.00;98857.44;5080065;28;19988;-80
2021/03/27 08:17:04;;;;;;;;;;;;;;;3.55;100.00;98857.56;5100555;28;19928;-80
2021/03/27 08:19:36;;;;;;;;;;;;;;;3.65;100.00;98848.56;5062352;28;19928;-80
2021/03/27 08:22:05;;;;;;;;;;;;;;;3.73;100.00;98857.69;5110938;28;19924;-81
2021/03/27 08:24:38;;;;;;;;;;;;;;;3.83;100.00;98872.78;5089896;28;20073;-81
2021/03/27 08:27:04;;;;;;;;;;;;;;;4.11;100.00;98873.78;5107337;28;19924;-81
2021/03/27 08:29:43;;;;;;;;;;;;;;;4.74;100.00;98878.88;5098982;28;20014;-80
2021/03/27 08:32:29;;;;;;;;;;;;;;;5.15;100.00;98872.66;5037024;28;20325;-80
2021/03/27 08:35:05;;;;;;;;;;;;;;;5.12;100.00;98894.78;5098178;28;19928;-81
2021/03/27 08:38:04;;;;;;;;;;;;;;;4.95;100.00;98890.78;5103891;28;19924;-81
2021/03/27 08:40:37;;;;;;;;;;;;;;;4.65;100.00;98901.34;5052363;28;19927;-81
2021/03/27 08:43:04;;;;;;;;;;;;;;;4.48;100.00;98909.56;5100394;27;19953;-81
2021/03/27 08:45:41;;;;;;;;;;;;;;;4.30;100.00;98906.69;5069921;28;20349;-81
2021/03/27 08:48:19;;;;;;;;;;;;;;;4.08;100.00;98935.38;5090993;28;20324;-82
2021/03/27 08:51:05;;;;;;;;;;;;;;;4.00;100.00;98949.53;5078282;28;19924;-81
2021/03/27 08:54:04;;;;;;;;;;;;;;;4.08;100.00;98945.63;5076753;28;19924;-80
2021/03/27 08:56:49;;;;;;;;;;;;;;;4.37;100.00;98947.44;5073939;28;19925;-81
2021/03/27 08:59:19;;;;;;;;;;;;;;;4.26;100.00;98952.88;5084306;28;19963;-80
2021/03/27 09:02:00;;;;;;;;;;;;;;;4.21;100.00;98950.47;5053629;28;19924;-80
2021/03/27 09:04:39;;;;;;;;;;;;;;;4.15;100.00;98956.75;5090457;28;19924;-81
2021/03/27 09:07:25;;;;;;;;;;;;;;;4.18;100.00;98956.78;5076293;28;20016;-81
2021/03/27 09:10:10;;;;;;;;;;;;;;;4.34;100.00;98957.31;5081798;28;19924;-85
2021/03/27 09:12:37;;;;;;;;;;;;;;;4.39;100.00;98965.22;5084085;28;19942;-84
2021/03/27 09:15:29;;;;;;;;;;;;;;;4.44;100.00;98953.78;5068972;28;19974;-85
2021/03/27 09:18:02;;;;;;;;;;;;;;;4.44;100.00;98956.56;5090196;28;19924;-85
2021/03/27 09:20:33;;;;;;;;;;;;;;;4.46;100.00;98959.75;5052743;28;20295;-84
2021/03/27 09:23:11;;;;;;;;;;;;;;;4.53;100.00;98981.91;5094245;28;19924;-81
2021/03/27 09:25:57;;;;;;;;;;;;;;;4.57;100.00;98971.69;5097877;28;20071;-82
2021/03/27 09:28:32;;;;;;;;;;;;;;;4.54;100.00;98983.53;5087646;28;19931;-82
2021/03/27 09:31:07;;;;;;;;;;;;;;;4.51;100.00;98984.31;5081440;28;20486;-82
2021/03/27 09:33:38;;;;;;;;;;;;;;;4.60;100.00;99001.34;5073614;28;19930;-81
2021/03/27 09:36:10;;;;;;;;;;;;;;;4.98;100.00;99000.75;5077427;28;19924;-81
2021/03/27 09:38:41;;;;;;;;;;;;;;;5.10;100.00;98991.34;5091372;28;19924;-81
2021/03/27 09:41:43;;;;;;;;;;;;;;;5.16;100.00;99007.22;5077298;28;19947;-81
2021/03/27 09:44:35;;;;;;;;;;;;;;;4.95;100.00;99003.53;5030378;28;19925;-82
2021/03/27 09:47:18;;;;;;;;;;;;;;;4.76;100.00;99003.81;5033275;28;20339;-82
2021/03/27 09:49:53;;;;;;;;;;;;;;;4.94;100.00;99015.78;5002249;28;19925;-83
2021/03/27 09:52:20;;;;;;;;;;;;;;;5.19;100.00;99030.56;5014594;28;19926;-83
2021/03/27 09:55:20;;;;;;;;;;;;;;;5.33;100.00;99031.41;5031997;28;19941;-82
2021/03/27 09:57:50;;;;;;;;;;;;;;;5.51;100.00;99034.25;5027447;28;19926;-82
2021/03/27 10:00:39;;;;;;;;;;;;;;;5.46;100.00;99038.19;5029631;28;19984;-82
2021/03/27 10:03:25;;;;;;;;;;;;;;;5.38;100.00;99047.66;5027555;28;19932;-82
2021/03/27 10:05:54;;;;;;;;;;;;;;;5.39;100.00;99048.47;5033543;28;20560;-83
2021/03/27 10:08:27;;;;;;;;;;;;;;;5.34;100.00;99049.63;5014799;28;19925;-83
2021/03/27 10:11:01;;;;;;;;;;;;;;;5.39;100.00;99071.41;5015683;28;19925;-82
2021/03/27 10:13:28;;;;;;;;;;;;;;;5.63;100.00;99070.72;5026966;28;20023;-82
2021/03/27 10:15:57;;;;;;;;;;;;;;;5.69;100.00;99067.56;5015468;28;19925;-82
2021/03/27 10:18:30;;;;;;;;;;;;;;;5.76;100.00;99071.16;5069504;28;19931;-83
2021/03/27 10:21:23;;;;;;;;;;;;;;;5.63;100.00;99069.13;5062480;28;20380;-82
2021/03/27 10:23:56;;;;;;;;;;;;;;;5.68;100.00;99072.31;5091278;28;20444;-83
2021/03/27 10:26:26;;;;;;;;;;;;;;;5.78;100.00;99073.53;5091080;28;19979;-82
2021/03/27 10:28:56;;;;;;;;;;;;;;;5.90;100.00;99067.66;5083374;28;20583;-82
2021/03/27 10:31:30;;;;;;;;;;;;;;;5.82;100.00;99054.97;5111246;28;19931;-82
2021/03/27 10:34:16;;;;;;;;;;;;;;;5.83;100.00;99042.69;5069599;28;20015;-82
2021/03/27 10:36:49;;;;;;;;;;;;;;;5.88;100.00;99064.50;5076446;28;19931;-82
2021/03/27 10:39:16;;;;;;;;;;;;;;;6.12;100.00;99063.75;5094251;28;20026;-82
2021/03/27 10:41:49;;;;;;;;;;;;;;;6.33;100.00;99063.78;5090389;28;19939;-82
2021/03/27 10:44:26;;;;;;;;;;;;;;;6.39;100.00;99071.31;5135180;27;19930;-82
2021/03/27 10:47:12;;;;;;;;;;;;;;;6.47;100.00;99075.69;5116295;27;19963;-81
2021/03/27 10:49:42;;;;;;;;;;;;;;;6.65;100.00;99090.34;5093121;27;19931;-81
2021/03/27 10:52:27;;;;;;;;;;;;;;;6.42;100.00;99097.50;5112725;28;20331;-82
2021/03/27 10:55:13;;;;;;;;;;;;;;;6.26;100.00;99114.50;5096300;28;19923;-82
2021/03/27 10:57:58;;;;;;;;;;;;;;;6.14;100.00;99108.53;5088043;27;19989;-82
2021/03/27 11:00:34;;;;;;;;;;;;;;;6.30;100.00;99100.66;5088194;28;19927;-82
2021/03/27 11:03:24;;;;;;;;;;;;;;;6.37;100.00;99115.34;5081736;28;19969;-82
2021/03/27 11:06:10;;;;;;;;;;;;;;;6.28;100.00;99116.88;5050210;28;20023;-82
2021/03/27 11:08:40;;;;;;;;;;;;;;;6.21;100.00;99111.34;5064883;28;20334;-82
2021/03/27 11:11:14;;;;;;;;;;;;;;;6.45;100.00;99105.03;5048768;28;19947;-82
2021/03/27 11:13:41;;;;;;;;;;;;;;;6.65;100.00;99098.69;5050911;28;19925;-81
2021/03/27 11:16:32;;;;;;;;;;;;;;;6.90;100.00;99109.78;5059478;28;20298;-82
2021/03/27 11:19:11;;;;;;;;;;;;;;;6.64;100.00;99112.97;5055017;28;20015;-81
2021/03/27 11:21:50;;;;;;;;;;;;;;;6.66;100.00;99102.25;5038270;28;19983;-82
2021/03/27 11:24:36;;;;;;;;;;;;;;;6.88;100.00;99106.59;5071514;28;19931;-82
2021/03/27 11:27:05;;;;;;;;;;;;;;;6.77;100.00;99117.72;5051726;28;20023;-82
2021/03/27 11:29:34;;;;;;;;;;;;;;;6.43;100.00;99113.75;5052742;28;19968;-82
2021/03/27 11:32:14;;;;;;;;;;;;;;;6.26;100.00;99108.16;5058363;28;19925;-82
2021/03/27 11:34:47;;;;;;;;;;;;;;;6.38;100.00;99116.09;5064485;28;20372;-82
2021/03/27 11:37:26;;;;;;;;;;;;;;;6.34;100.00;99118.91;5059747;28;19931;-84
2021/03/27 11:40:11;;;;;;;;;;;;;;;6.37;100.00;99126.44;5063327;28;19925;-82
2021/03/27 11:42:44;;;;;;;;;;;;;;;6.68;100.00;99133.22;5070858;28;20328;-82
2021/03/27 11:45:37;;;;;;;;;;;;;;;6.48;100.00;99137.56;5106469;28;19927;-82
2021/03/27 11:48:17;;;;;;;;;;;;;;;6.68;100.00;99141.53;5089934;28;19924;-82
2021/03/27 11:50:53;;;;;;;;;;;;;;;7.07;100.00;99131.97;5107520;28;20405;-82
2021/03/27 11:53:38;;;;;;;;;;;;;;;7.49;100.00;99135.88;5087256;28;19930;-82
2021/03/27 11:56:22;;;;;;;;;;;;;;;7.56;100.00;99133.88;5116054;28;20026;-83
2021/03/27 12:01:38;;;;;;;;;;;;;;;7.27;100.00;99140.69;5110580;28;19932;-82
2021/03/27 12:04:05;;;;;;;;;;;;;;;7.33;100.00;99150.22;5099398;28;19927;-82
2021/03/27 12:06:38;;;;;;;;;;;;;;;7.54;100.00;99147.41;5091452;28;19923;-83
2021/03/27 12:09:26;;;;;;;;;;;;;;;7.52;100.00;99151.75;5102259;28;19923;-82
2021/03/27 12:11:53;;;;;;;;;;;;;;;7.22;100.00;99146.66;5118367;27;20294;-83
2021/03/27 12:14:38;;;;;;;;;;;;;;;6.96;100.00;99141.53;5099241;28;20291;-82
2021/03/27 12:17:18;;;;;;;;;;;;;;;6.82;100.00;99144.31;5101406;27;19923;-82
2021/03/27 12:19:54;;;;;;;;;;;;;;;6.94;100.00;99147.47;5138352;27;19930;-82
2021/03/27 12:22:23;;;;;;;;;;;;;;;7.31;100.00;99158.19;5119737;27;20713;-82
2021/03/27 12:24:53;;;;;;;;;;;;;;;7.35;100.00;99151.41;5137548;27;19924;-82
2021/03/27 12:27:23;;;;;;;;;;;;;;;7.47;100.00;99152.97;5099019;27;20037;-82
2021/03/27 12:29:53;;;;;;;;;;;;;;;7.45;100.00;99141.47;5119256;27;20293;-82
2021/03/27 12:32:21;;;;;;;;;;;;;;;7.48;100.00;99151.78;5119494;27;19923;-82
2021/03/27 12:35:00;;;;;;;;;;;;;;;7.22;100.00;99149.44;5110915;28;19951;-82
2021/03/27 12:37:36;;;;;;;;;;;;;;;7.26;100.00;99145.47;5088821;27;20371;-82
2021/03/27 12:40:02;;;;;;;;;;;;;;;7.19;100.00;99144.69;5097710;28;19924;-82
2021/03/27 12:42:36;;;;;;;;;;;;;;;7.37;100.00;99156.56;5103375;28;19963;-82
2021/03/27 12:45:21;;;;;;;;;;;;;;;7.50;100.00;99149.38;5089835;27;20038;-82
2021/03/27 12:47:58;;;;;;;;;;;;;;;7.67;100.00;99165.25;5081681;27;19924;-82
2021/03/27 12:50:38;;;;;;;;;;;;;;;8.03;100.00;99161.13;5112501;27;20312;-82
2021/03/27 12:53:30;;;;;;;;;;;;;;;8.17;100.00;99166.63;5090637;28;19928;-82
2021/03/27 12:56:09;;;;;;;;;;;;;;;8.23;100.00;99165.03;5099451;27;20290;-82
2021/03/27 12:58:39;;;;;;;;;;;;;;;8.24;100.00;99138.00;5065070;28;19928;-81
2021/03/27 13:01:15;;;;;;;;;;;;;;;8.15;100.00;99151.56;5098360;28;19931;-81
2021/03/27 13:03:45;;;;;;;;;;;;;;;8.04;100.00;99139.66;5117783;27;19931;-81
2021/03/27 13:06:17;;;;;;;;;;;;;;;8.17;100.00;99161.06;5108400;27;20022;-82
2021/03/27 13:09:07;;;;;;;;;;;;;;;8.29;100.00;99162.63;5069093;28;19924;-81
2021/03/27 13:11:43;;;;;;;;;;;;;;;8.22;100.00;99151.50;5014169;28;19933;-81
2021/03/27 13:14:25;;;;;;;;;;;;;;;7.97;100.00;99159.97;5010622;28;20583;-82
2021/03/27 13:16:58;;;;;;;;;;;;;;;7.90;100.00;99160.00;5033827;28;20340;-81
2021/03/27 13:19:25;;;;;;;;;;;;;;;7.96;100.00;99161.16;5006264;28;19932;-82
2021/03/27 13:21:57;;;;;;;;;;;;;;;7.80;100.00;99160.81;5011139;28;20010;-82
2021/03/27 13:24:24;;;;;;;;;;;;;;;7.82;100.00;99166.78;5007283;28;20408;-81
2021/03/27 13:27:00;;;;;;;;;;;;;;;7.79;100.00;99178.72;5019969;28;19932;-81
2021/03/27 13:29:43;;;;;;;;;;;;;;;7.91;100.00;99169.91;5023537;28;19925;-81
2021/03/27 13:32:10;;;;;;;;;;;;;;;7.94;100.00;99169.13;4999274;28;19925;-82
2021/03/27 13:34:40;;;;;;;;;;;;;;;8.03;100.00;99174.22;5021809;28;19967;-82
2021/03/27 13:37:11;;;;;;;;;;;;;;;7.99;100.00;99182.63;5029540;28;20436;-82
2021/03/27 13:40:04;;;;;;;;;;;;;;;8.18;100.00;99176.56;5019311;28;20415;-81
2021/03/27 13:42:38;;;;;;;;;;;;;;;8.39;100.00;99178.50;5029167;28;20409;-81